sensor_id;sensor_type;location;lat;lon;timestamp;temperature;humidity
12849;DHT22;6493;50.928;7.172;2022-10-03T00:08:32;7.70;64.00
12849;DHT22;6493;50.928;7.172;2022-10-03T00:13:44;7.70;64.00
12849;DHT22;6493;50.928;7.172;2022-10-03T00:19:00;7.70;64.00
12849;DHT22;6493;50.928;7.172;2022-10-03T00:24:16;7.60;64.00
12849;DHT22;6493;50.928;7.172;2022-10-03T00:29:41;7.60;64.20
12849;DHT22;6493;50.928;7.172;2022-10-03T00:35:04;7.60;64.30
12849;DHT22;6493;50.928;7.172;2022-10-03T00:40:34;7.60;64.30
12849;DHT22;6493;50.928;7.172;2022-10-03T00:51:33;7.50;64.20
12849;DHT22;6493;50.928;7.172;2022-10-03T00:57:03;7.50;64.90
12849;DHT22;6493;50.928;7.172;2022-10-03T01:02:24;7.40;64.10
12849;DHT22;6493;50.928;7.172;2022-10-03T01:07:51;7.40;64.10
12849;DHT22;6493;50.928;7.172;2022-10-03T01:13:14;7.30;64.00
12849;DHT22;6493;50.928;7.172;2022-10-03T01:18:30;7.30;64.00
12849;DHT22;6493;50.928;7.172;2022-10-03T01:24:06;7.20;63.90
12849;DHT22;6493;50.928;7.172;2022-10-03T01:29:20;7.20;64.00
12849;DHT22;6493;50.928;7.172;2022-10-03T01:34:46;7.20;64.00
12849;DHT22;6493;50.928;7.172;2022-10-03T01:39:55;7.10;64.00
12849;DHT22;6493;50.928;7.172;2022-10-03T01:45:10;7.10;64.10
12849;DHT22;6493;50.928;7.172;2022-10-03T01:50:22;7.00;64.10
12849;DHT22;6493;50.928;7.172;2022-10-03T01:55:36;7.00;64.20
12849;DHT22;6493;50.928;7.172;2022-10-03T02:00:48;7.00;64.10
12849;DHT22;6493;50.928;7.172;2022-10-03T02:06:02;7.00;64.10
12849;DHT22;6493;50.928;7.172;2022-10-03T02:11:09;7.00;64.10
12849;DHT22;6493;50.928;7.172;2022-10-03T02:16:19;6.90;64.00
12849;DHT22;6493;50.928;7.172;2022-10-03T02:21:31;6.90;64.00
12849;DHT22;6493;50.928;7.172;2022-10-03T02:38:22;6.80;64.00
12849;DHT22;6493;50.928;7.172;2022-10-03T02:49:36;6.70;63.90
12849;DHT22;6493;50.928;7.172;2022-10-03T03:00:33;6.60;63.80
12849;DHT22;6493;50.928;7.172;2022-10-03T03:17:05;6.40;63.60
12849;DHT22;6493;50.928;7.172;2022-10-03T03:22:26;6.40;63.70
12849;DHT22;6493;50.928;7.172;2022-10-03T03:27:42;6.40;63.70
12849;DHT22;6493;50.928;7.172;2022-10-03T03:33:01;6.30;63.60
12849;DHT22;6493;50.928;7.172;2022-10-03T03:38:18;6.30;63.60
12849;DHT22;6493;50.928;7.172;2022-10-03T03:43:40;6.20;63.60
12849;DHT22;6493;50.928;7.172;2022-10-03T03:49:03;6.20;63.70
12849;DHT22;6493;50.928;7.172;2022-10-03T03:54:43;6.20;64.40
12849;DHT22;6493;50.928;7.172;2022-10-03T04:00:03;6.10;63.70
12849;DHT22;6493;50.928;7.172;2022-10-03T04:05:16;6.10;63.80
12849;DHT22;6493;50.928;7.172;2022-10-03T04:10:35;6.10;63.70
12849;DHT22;6493;50.928;7.172;2022-10-03T04:33:13;5.90;63.80
12849;DHT22;6493;50.928;7.172;2022-10-03T04:38:36;5.90;63.80
12849;DHT22;6493;50.928;7.172;2022-10-03T04:43:47;5.90;63.60
12849;DHT22;6493;50.928;7.172;2022-10-03T04:49:00;5.80;63.50
12849;DHT22;6493;50.928;7.172;2022-10-03T04:54:15;5.80;63.70
12849;DHT22;6493;50.928;7.172;2022-10-03T04:59:39;5.80;63.70
12849;DHT22;6493;50.928;7.172;2022-10-03T05:04:57;5.80;63.60
12849;DHT22;6493;50.928;7.172;2022-10-03T05:10:22;5.70;63.50
12849;DHT22;6493;50.928;7.172;2022-10-03T05:15:33;5.60;63.40
12849;DHT22;6493;50.928;7.172;2022-10-03T05:20:49;5.60;63.40
12849;DHT22;6493;50.928;7.172;2022-10-03T05:26:03;5.60;63.40
12849;DHT22;6493;50.928;7.172;2022-10-03T05:31:41;5.50;63.30
12849;DHT22;6493;50.928;7.172;2022-10-03T05:37:01;5.40;63.20
12849;DHT22;6493;50.928;7.172;2022-10-03T05:42:34;5.40;63.40
12849;DHT22;6493;50.928;7.172;2022-10-03T05:47:48;5.40;63.60
12849;DHT22;6493;50.928;7.172;2022-10-03T05:53:00;5.40;63.60
12849;DHT22;6493;50.928;7.172;2022-10-03T05:58:26;5.40;63.90
12849;DHT22;6493;50.928;7.172;2022-10-03T06:04:09;5.40;64.00
12849;DHT22;6493;50.928;7.172;2022-10-03T06:09:47;5.40;64.00
12849;DHT22;6493;50.928;7.172;2022-10-03T06:15:27;5.40;64.10
12849;DHT22;6493;50.928;7.172;2022-10-03T06:21:04;5.50;64.20
12849;DHT22;6493;50.928;7.172;2022-10-03T06:26:29;5.50;65.10
12849;DHT22;6493;50.928;7.172;2022-10-03T06:32:04;5.60;64.50
12849;DHT22;6493;50.928;7.172;2022-10-03T06:37:45;5.70;64.80
12849;DHT22;6493;50.928;7.172;2022-10-03T06:43:04;5.80;65.00
12849;DHT22;6493;50.928;7.172;2022-10-03T06:48:23;5.90;65.10
12849;DHT22;6493;50.928;7.172;2022-10-03T06:54:08;6.00;65.40
12849;DHT22;6493;50.928;7.172;2022-10-03T06:59:42;6.10;65.50
12849;DHT22;6493;50.928;7.172;2022-10-03T07:05:27;6.20;65.70
12849;DHT22;6493;50.928;7.172;2022-10-03T07:11:09;6.30;65.80
12849;DHT22;6493;50.928;7.172;2022-10-03T07:16:31;6.50;66.50
12849;DHT22;6493;50.928;7.172;2022-10-03T07:27:44;6.90;66.60
12849;DHT22;6493;50.928;7.172;2022-10-03T07:33:23;6.90;66.40
12849;DHT22;6493;50.928;7.172;2022-10-03T07:38:59;7.10;66.60
12849;DHT22;6493;50.928;7.172;2022-10-03T07:49:54;7.30;66.80
12849;DHT22;6493;50.928;7.172;2022-10-03T07:55:26;7.40;66.80
12849;DHT22;6493;50.928;7.172;2022-10-03T08:00:41;7.50;67.00
12849;DHT22;6493;50.928;7.172;2022-10-03T08:06:13;7.60;67.30
12849;DHT22;6493;50.928;7.172;2022-10-03T08:11:40;7.80;68.40
12849;DHT22;6493;50.928;7.172;2022-10-03T08:22:30;8.50;68.50
12849;DHT22;6493;50.928;7.172;2022-10-03T08:27:50;8.70;68.20
12849;DHT22;6493;50.928;7.172;2022-10-03T08:33:14;8.80;67.70
12849;DHT22;6493;50.928;7.172;2022-10-03T08:38:48;8.90;67.70
12849;DHT22;6493;50.928;7.172;2022-10-03T08:50:14;9.00;68.00
12849;DHT22;6493;50.928;7.172;2022-10-03T08:55:41;9.00;67.90
12849;DHT22;6493;50.928;7.172;2022-10-03T09:01:14;9.10;67.90
12849;DHT22;6493;50.928;7.172;2022-10-03T09:06:52;9.10;68.10
12849;DHT22;6493;50.928;7.172;2022-10-03T09:12:31;9.20;68.50
12849;DHT22;6493;50.928;7.172;2022-10-03T09:18:06;9.40;68.80
12849;DHT22;6493;50.928;7.172;2022-10-03T09:23:51;9.70;69.70
12849;DHT22;6493;50.928;7.172;2022-10-03T09:46:24;10.50;69.10
12849;DHT22;6493;50.928;7.172;2022-10-03T09:51:39;10.70;69.10
12849;DHT22;6493;50.928;7.172;2022-10-03T10:08:32;11.50;69.80
12849;DHT22;6493;50.928;7.172;2022-10-03T10:14:04;11.70;68.70
12849;DHT22;6493;50.928;7.172;2022-10-03T10:19:30;11.90;68.70
12849;DHT22;6493;50.928;7.172;2022-10-03T10:30:44;12.30;68.40
12849;DHT22;6493;50.928;7.172;2022-10-03T10:41:49;12.50;67.80
12849;DHT22;6493;50.928;7.172;2022-10-03T10:47:24;12.60;67.80
12849;DHT22;6493;50.928;7.172;2022-10-03T11:04:57;12.60;66.50
12849;DHT22;6493;50.928;7.172;2022-10-03T11:10:33;12.60;67.10
12849;DHT22;6493;50.928;7.172;2022-10-03T11:33:07;12.70;67.70
12849;DHT22;6493;50.928;7.172;2022-10-03T11:38:19;12.80;66.20
12849;DHT22;6493;50.928;7.172;2022-10-03T11:43:50;13.00;67.10
12849;DHT22;6493;50.928;7.172;2022-10-03T11:49:08;13.20;66.70
12849;DHT22;6493;50.928;7.172;2022-10-03T11:54:21;13.30;66.70
12849;DHT22;6493;50.928;7.172;2022-10-03T11:59:53;13.40;66.30
12849;DHT22;6493;50.928;7.172;2022-10-03T12:04:59;13.50;66.00
12849;DHT22;6493;50.928;7.172;2022-10-03T12:10:11;13.60;66.70
12849;DHT22;6493;50.928;7.172;2022-10-03T12:15:28;13.80;66.50
12849;DHT22;6493;50.928;7.172;2022-10-03T12:21:04;14.10;66.70
12849;DHT22;6493;50.928;7.172;2022-10-03T12:26:14;14.30;65.50
12849;DHT22;6493;50.928;7.172;2022-10-03T12:31:23;14.60;66.00
12849;DHT22;6493;50.928;7.172;2022-10-03T12:36:34;14.70;65.50
12849;DHT22;6493;50.928;7.172;2022-10-03T12:42:03;14.80;65.30
12849;DHT22;6493;50.928;7.172;2022-10-03T12:47:25;14.90;64.00
12849;DHT22;6493;50.928;7.172;2022-10-03T12:52:55;14.90;64.20
12849;DHT22;6493;50.928;7.172;2022-10-03T12:58:07;14.90;64.20
12849;DHT22;6493;50.928;7.172;2022-10-03T13:03:19;14.90;64.30
12849;DHT22;6493;50.928;7.172;2022-10-03T13:08:40;15.00;63.60
12849;DHT22;6493;50.928;7.172;2022-10-03T13:13:58;15.10;63.50
12849;DHT22;6493;50.928;7.172;2022-10-03T13:19:10;15.20;63.30
12849;DHT22;6493;50.928;7.172;2022-10-03T13:24:25;15.30;63.10
12849;DHT22;6493;50.928;7.172;2022-10-03T13:29:37;15.20;62.40
12849;DHT22;6493;50.928;7.172;2022-10-03T13:34:57;15.10;62.40
12849;DHT22;6493;50.928;7.172;2022-10-03T13:40:24;14.90;61.70
12849;DHT22;6493;50.928;7.172;2022-10-03T13:45:31;14.80;62.20
12849;DHT22;6493;50.928;7.172;2022-10-03T13:50:41;14.80;62.40
12849;DHT22;6493;50.928;7.172;2022-10-03T13:55:49;14.80;62.30
12849;DHT22;6493;50.928;7.172;2022-10-03T14:01:13;14.80;62.40
12849;DHT22;6493;50.928;7.172;2022-10-03T14:06:27;14.90;61.90
12849;DHT22;6493;50.928;7.172;2022-10-03T14:11:45;14.90;62.00
12849;DHT22;6493;50.928;7.172;2022-10-03T14:16:54;14.90;61.70
12849;DHT22;6493;50.928;7.172;2022-10-03T14:22:18;14.90;61.60
12849;DHT22;6493;50.928;7.172;2022-10-03T14:27:51;14.90;61.00
12849;DHT22;6493;50.928;7.172;2022-10-03T14:33:10;14.90;60.30
12849;DHT22;6493;50.928;7.172;2022-10-03T14:38:42;14.90;60.70
12849;DHT22;6493;50.928;7.172;2022-10-03T14:44:04;14.80;60.10
12849;DHT22;6493;50.928;7.172;2022-10-03T14:49:19;14.80;60.80
12849;DHT22;6493;50.928;7.172;2022-10-03T14:54:49;14.70;60.40
12849;DHT22;6493;50.928;7.172;2022-10-03T14:59:54;14.60;60.00
12849;DHT22;6493;50.928;7.172;2022-10-03T15:05:05;14.40;60.30
12849;DHT22;6493;50.928;7.172;2022-10-03T15:10:14;14.30;60.10
12849;DHT22;6493;50.928;7.172;2022-10-03T15:15:22;14.20;59.80
12849;DHT22;6493;50.928;7.172;2022-10-03T15:20:34;14.10;60.00
12849;DHT22;6493;50.928;7.172;2022-10-03T15:25:40;14.00;60.00
12849;DHT22;6493;50.928;7.172;2022-10-03T15:30:45;13.90;60.00
12849;DHT22;6493;50.928;7.172;2022-10-03T15:35:52;13.90;60.20
12849;DHT22;6493;50.928;7.172;2022-10-03T15:41:08;13.80;60.10
12849;DHT22;6493;50.928;7.172;2022-10-03T15:46:22;13.80;59.80
12849;DHT22;6493;50.928;7.172;2022-10-03T15:51:28;13.70;59.90
12849;DHT22;6493;50.928;7.172;2022-10-03T15:56:38;13.70;60.10
12849;DHT22;6493;50.928;7.172;2022-10-03T16:01:44;13.60;60.00
12849;DHT22;6493;50.928;7.172;2022-10-03T16:06:55;13.60;60.20
12849;DHT22;6493;50.928;7.172;2022-10-03T16:12:36;13.50;60.10
12849;DHT22;6493;50.928;7.172;2022-10-03T16:17:46;13.40;59.90
12849;DHT22;6493;50.928;7.172;2022-10-03T16:22:53;13.40;60.10
12849;DHT22;6493;50.928;7.172;2022-10-03T16:28:02;13.30;60.00
12849;DHT22;6493;50.928;7.172;2022-10-03T16:33:15;13.20;60.00
12849;DHT22;6493;50.928;7.172;2022-10-03T16:38:22;13.10;59.90
12849;DHT22;6493;50.928;7.172;2022-10-03T16:43:30;13.00;59.90
12849;DHT22;6493;50.928;7.172;2022-10-03T16:48:35;13.00;60.60
12849;DHT22;6493;50.928;7.172;2022-10-03T16:53:56;12.80;59.80
12849;DHT22;6493;50.928;7.172;2022-10-03T16:59:04;12.70;59.80
12849;DHT22;6493;50.928;7.172;2022-10-03T17:04:14;12.60;59.80
12849;DHT22;6493;50.928;7.172;2022-10-03T17:09:27;12.50;59.80
12849;DHT22;6493;50.928;7.172;2022-10-03T17:14:37;12.40;59.80
12849;DHT22;6493;50.928;7.172;2022-10-03T17:19:47;12.30;59.80
12849;DHT22;6493;50.928;7.172;2022-10-03T17:24:57;12.20;59.80
12849;DHT22;6493;50.928;7.172;2022-10-03T17:30:23;12.10;59.80
12849;DHT22;6493;50.928;7.172;2022-10-03T17:35:39;11.90;59.70
12849;DHT22;6493;50.928;7.172;2022-10-03T17:40:59;11.80;59.80
12849;DHT22;6493;50.928;7.172;2022-10-03T17:46:15;11.70;59.90
12849;DHT22;6493;50.928;7.172;2022-10-03T17:51:36;11.70;60.10
12849;DHT22;6493;50.928;7.172;2022-10-03T17:56:44;11.50;59.90
12849;DHT22;6493;50.928;7.172;2022-10-03T18:01:55;11.50;59.90
12849;DHT22;6493;50.928;7.172;2022-10-03T18:07:01;11.40;59.80
12849;DHT22;6493;50.928;7.172;2022-10-03T18:12:13;11.30;59.90
12849;DHT22;6493;50.928;7.172;2022-10-03T18:17:25;11.20;60.00
12849;DHT22;6493;50.928;7.172;2022-10-03T18:22:34;11.10;60.00
12849;DHT22;6493;50.928;7.172;2022-10-03T18:28:06;11.00;59.90
12849;DHT22;6493;50.928;7.172;2022-10-03T18:33:19;11.00;60.20
12849;DHT22;6493;50.928;7.172;2022-10-03T18:38:26;10.90;60.00
12849;DHT22;6493;50.928;7.172;2022-10-03T18:43:35;10.80;60.00
12849;DHT22;6493;50.928;7.172;2022-10-03T18:49:06;10.70;60.00
12849;DHT22;6493;50.928;7.172;2022-10-03T18:54:47;10.50;60.00
12849;DHT22;6493;50.928;7.172;2022-10-03T18:59:56;10.40;60.10
12849;DHT22;6493;50.928;7.172;2022-10-03T19:05:08;10.30;60.00
12849;DHT22;6493;50.928;7.172;2022-10-03T19:10:37;10.20;60.40
12849;DHT22;6493;50.928;7.172;2022-10-03T19:15:53;10.10;60.60
12849;DHT22;6493;50.928;7.172;2022-10-03T19:21:10;10.00;60.40
12849;DHT22;6493;50.928;7.172;2022-10-03T19:26:22;10.00;60.50
12849;DHT22;6493;50.928;7.172;2022-10-03T19:31:30;9.90;60.40
12849;DHT22;6493;50.928;7.172;2022-10-03T19:36:39;9.90;60.50
12849;DHT22;6493;50.928;7.172;2022-10-03T19:41:50;9.90;60.60
12849;DHT22;6493;50.928;7.172;2022-10-03T19:47:02;9.90;60.70
12849;DHT22;6493;50.928;7.172;2022-10-03T19:52:16;9.90;60.80
12849;DHT22;6493;50.928;7.172;2022-10-03T19:57:24;9.80;60.80
12849;DHT22;6493;50.928;7.172;2022-10-03T20:02:28;9.80;60.70
12849;DHT22;6493;50.928;7.172;2022-10-03T20:07:42;9.80;60.60
12849;DHT22;6493;50.928;7.172;2022-10-03T20:12:49;9.70;60.70
12849;DHT22;6493;50.928;7.172;2022-10-03T20:17:58;9.70;60.60
12849;DHT22;6493;50.928;7.172;2022-10-03T20:23:06;9.60;60.60
12849;DHT22;6493;50.928;7.172;2022-10-03T20:28:17;9.50;60.40
12849;DHT22;6493;50.928;7.172;2022-10-03T20:33:25;9.40;60.40
12849;DHT22;6493;50.928;7.172;2022-10-03T20:38:44;9.30;60.60
12849;DHT22;6493;50.928;7.172;2022-10-03T20:43:55;9.20;60.70
12849;DHT22;6493;50.928;7.172;2022-10-03T20:49:17;9.20;60.70
12849;DHT22;6493;50.928;7.172;2022-10-03T20:54:25;9.20;60.80
12849;DHT22;6493;50.928;7.172;2022-10-03T20:59:35;9.10;60.60
12849;DHT22;6493;50.928;7.172;2022-10-03T21:04:44;9.00;60.60
12849;DHT22;6493;50.928;7.172;2022-10-03T21:09:56;9.00;61.30
12849;DHT22;6493;50.928;7.172;2022-10-03T21:15:05;8.90;60.60
12849;DHT22;6493;50.928;7.172;2022-10-03T21:20:13;8.80;60.50
12849;DHT22;6493;50.928;7.172;2022-10-03T21:25:27;8.80;60.60
12849;DHT22;6493;50.928;7.172;2022-10-03T21:30:47;8.70;60.60
12849;DHT22;6493;50.928;7.172;2022-10-03T21:36:03;8.60;60.70
12849;DHT22;6493;50.928;7.172;2022-10-03T21:41:23;8.50;60.70
12849;DHT22;6493;50.928;7.172;2022-10-03T21:46:35;8.50;60.80
12849;DHT22;6493;50.928;7.172;2022-10-03T21:52:01;8.40;60.50
12849;DHT22;6493;50.928;7.172;2022-10-03T21:57:13;8.40;60.80
12849;DHT22;6493;50.928;7.172;2022-10-03T22:02:27;8.30;60.60
12849;DHT22;6493;50.928;7.172;2022-10-03T22:07:35;8.30;60.60
12849;DHT22;6493;50.928;7.172;2022-10-03T22:12:44;8.20;60.50
12849;DHT22;6493;50.928;7.172;2022-10-03T22:17:53;8.20;60.50
12849;DHT22;6493;50.928;7.172;2022-10-03T22:23:15;8.10;60.50
12849;DHT22;6493;50.928;7.172;2022-10-03T22:28:31;8.00;60.50
12849;DHT22;6493;50.928;7.172;2022-10-03T22:33:53;8.00;60.60
12849;DHT22;6493;50.928;7.172;2022-10-03T22:38:58;7.90;60.50
12849;DHT22;6493;50.928;7.172;2022-10-03T22:44:05;7.90;60.60
12849;DHT22;6493;50.928;7.172;2022-10-03T22:49:14;7.80;60.60
12849;DHT22;6493;50.928;7.172;2022-10-03T22:54:21;7.80;61.40
12849;DHT22;6493;50.928;7.172;2022-10-03T22:59:30;7.80;60.70
12849;DHT22;6493;50.928;7.172;2022-10-03T23:10:19;7.70;60.60
12849;DHT22;6493;50.928;7.172;2022-10-03T23:15:27;7.60;61.50
12849;DHT22;6493;50.928;7.172;2022-10-03T23:20:49;7.60;60.70
12849;DHT22;6493;50.928;7.172;2022-10-03T23:26:02;7.50;60.90
12849;DHT22;6493;50.928;7.172;2022-10-03T23:31:48;7.50;60.90
12849;DHT22;6493;50.928;7.172;2022-10-03T23:37:00;7.40;60.90
12849;DHT22;6493;50.928;7.172;2022-10-03T23:42:08;7.30;60.80
12849;DHT22;6493;50.928;7.172;2022-10-03T23:47:16;7.20;60.70
12849;DHT22;6493;50.928;7.172;2022-10-03T23:52:23;7.20;60.80
12849;DHT22;6493;50.928;7.172;2022-10-03T23:57:32;7.20;60.70
